createdAt,value
2019-05-19T00:02:06.309Z,100355.43
2019-05-19T00:04:37.891Z,100353.67
2019-05-19T00:07:09.199Z,100353.09
2019-05-19T00:09:40.711Z,100354.91
2019-05-19T00:12:12.236Z,100362.30
2019-05-19T00:14:43.514Z,100350.23
2019-05-19T00:17:14.893Z,100352.87
2019-05-19T00:19:46.108Z,100340.70
2019-05-19T00:22:17.599Z,100350.83
2019-05-19T00:24:49.016Z,100352.82
2019-05-19T00:27:20.262Z,100353.33
2019-05-19T00:29:51.536Z,100356.94
2019-05-19T00:32:23.187Z,100354.24
2019-05-19T00:34:54.875Z,100366.11
2019-05-19T00:37:26.457Z,100349.66
2019-05-19T00:39:58.001Z,100368.69
2019-05-19T00:42:29.432Z,100345.03
2019-05-19T00:45:00.801Z,100348.24
2019-05-19T00:47:32.049Z,100352.06
2019-05-19T00:50:04.371Z,100342.24
2019-05-19T00:52:35.788Z,100347.84
2019-05-19T00:55:07.310Z,100348.45
2019-05-19T00:57:39.676Z,100360.38
2019-05-19T01:00:12.236Z,100342.48
2019-05-19T01:02:43.594Z,100351.12
2019-05-19T01:05:14.790Z,100354.48
2019-05-19T01:07:46.223Z,100359.33
2019-05-19T01:10:17.678Z,100357.02
2019-05-19T01:12:49.039Z,100364.57
2019-05-19T01:15:21.178Z,100371.72
2019-05-19T01:17:52.490Z,100365.69
2019-05-19T01:20:24.394Z,100351.14
2019-05-19T01:22:55.716Z,100347.42
2019-05-19T01:25:27.215Z,100354.82
2019-05-19T01:27:58.955Z,100336.47
2019-05-19T01:30:30.414Z,100348.61
2019-05-19T01:33:01.916Z,100357.56
2019-05-19T01:35:33.251Z,100371.50
2019-05-19T01:38:04.674Z,100373.92
2019-05-19T01:40:36.070Z,100383.05
2019-05-19T01:43:07.608Z,100384.75
2019-05-19T01:45:39.026Z,100386.73
2019-05-19T01:48:10.464Z,100380.45
2019-05-19T01:50:42.147Z,100383.08
2019-05-19T01:53:13.701Z,100383.58
2019-05-19T01:55:45.143Z,100382.93
2019-05-19T01:58:16.575Z,100385.44
2019-05-19T02:00:47.839Z,100396.36
2019-05-19T02:03:19.267Z,100399.65
2019-05-19T02:05:50.742Z,100388.98
2019-05-19T02:08:22.217Z,100385.52
2019-05-19T02:10:53.566Z,100386.85
2019-05-19T02:13:24.952Z,100391.72
2019-05-19T02:15:57.470Z,100399.01
2019-05-19T02:18:28.817Z,100405.26
2019-05-19T02:21:00.064Z,100407.72
2019-05-19T02:23:31.566Z,100398.94
2019-05-19T02:26:02.978Z,100390.48
2019-05-19T02:28:34.359Z,100389.52
2019-05-19T02:31:05.752Z,100392.81
2019-05-19T02:33:37.241Z,100403.25
2019-05-19T02:36:08.563Z,100406.57
2019-05-19T02:38:40.020Z,100402.84
2019-05-19T02:41:12.762Z,100405.11
2019-05-19T02:43:44.831Z,100409.49
2019-05-19T02:46:16.155Z,100413.74
2019-05-19T02:48:49.520Z,100415.98
2019-05-19T02:51:22.650Z,100422.80
2019-05-19T02:53:55.233Z,100411.86
2019-05-19T02:56:28.473Z,100412.89
2019-05-19T02:59:00.944Z,100403.94
2019-05-19T03:01:34.035Z,100406.06
2019-05-19T03:04:04.800Z,100409.02
2019-05-19T03:06:35.850Z,100408.90
2019-05-19T03:09:07.157Z,100421.34
2019-05-19T03:11:38.462Z,100433.55
2019-05-19T03:14:10.348Z,100438.42
2019-05-19T03:16:41.847Z,100432.77
2019-05-19T03:19:13.362Z,100436.80
2019-05-19T03:21:44.749Z,100437.22
2019-05-19T03:24:16.243Z,100438.73
2019-05-19T03:26:48.115Z,100444.61
2019-05-19T03:29:21.105Z,100437.14
2019-05-19T03:31:54.131Z,100437.18
2019-05-19T03:34:27.090Z,100443.99
2019-05-19T03:36:58.209Z,100437.73
2019-05-19T03:39:29.410Z,100450.16
2019-05-19T03:42:00.752Z,100437.08
2019-05-19T03:44:32.005Z,100440.53
2019-05-19T03:47:03.167Z,100450.16
2019-05-19T03:49:34.255Z,100439.91
2019-05-19T03:52:05.938Z,100447.13
2019-05-19T03:54:37.265Z,100449.16
2019-05-19T03:57:08.657Z,100452.11
2019-05-19T03:59:40.169Z,100447.39
2019-05-19T04:02:11.336Z,100451.55
2019-05-19T04:04:42.599Z,100452.72
2019-05-19T04:07:13.736Z,100437.27
2019-05-19T04:09:44.992Z,100448.75
2019-05-19T04:12:17.394Z,100454.16
2019-05-19T04:14:48.958Z,100449.17
2019-05-19T04:17:20.165Z,100459.62
2019-05-19T04:19:51.645Z,100462.34
2019-05-19T04:22:22.807Z,100460.23
2019-05-19T04:24:54.169Z,100471.11
2019-05-19T04:27:25.339Z,100465.55
2019-05-19T04:29:56.666Z,100473.89
2019-05-19T04:32:27.961Z,100478.86
2019-05-19T04:34:59.333Z,100465.83
2019-05-19T04:37:30.650Z,100468.98
2019-05-19T04:40:01.979Z,100469.97
2019-05-19T04:42:34.541Z,100474.73
2019-05-19T04:45:06.879Z,100473.55
2019-05-19T04:47:38.208Z,100486.27
2019-05-19T04:50:09.593Z,100485.22
2019-05-19T04:52:40.954Z,100481.69
2019-05-19T04:55:12.172Z,100482.11
2019-05-19T04:57:43.438Z,100481.33
2019-05-19T05:00:14.883Z,100477.50
2019-05-19T05:02:46.145Z,100480.36
2019-05-19T05:05:17.387Z,100479.67
2019-05-19T05:07:48.830Z,100488.66
2019-05-19T05:10:20.543Z,100488.11
2019-05-19T05:12:52.820Z,100485.27
2019-05-19T05:15:24.112Z,100488.19
2019-05-19T05:17:55.292Z,100490.88
2019-05-19T05:20:26.521Z,100488.98
2019-05-19T05:22:57.736Z,100481.91
2019-05-19T05:25:29.132Z,100484.64
2019-05-19T05:28:00.570Z,100490.66
2019-05-19T05:30:32.153Z,100492.08
2019-05-19T05:33:03.701Z,100482.08
2019-05-19T05:35:35.299Z,100510.09
2019-05-19T05:38:06.911Z,100497.75
2019-05-19T05:40:38.232Z,100494.05
2019-05-19T05:43:09.821Z,100506.49
2019-05-19T05:45:40.878Z,100504.05
2019-05-19T05:48:13.261Z,100492.28
2019-05-19T05:50:44.647Z,100490.54
2019-05-19T05:53:16.209Z,100515.97
2019-05-19T05:55:47.848Z,100503.83
2019-05-19T05:58:19.495Z,100502.67
2019-05-19T06:00:50.947Z,100492.70
2019-05-19T06:03:22.416Z,100496.81
2019-05-19T06:05:53.665Z,100504.70
2019-05-19T06:08:25.166Z,100501.18
2019-05-19T06:10:56.733Z,100503.62
2019-05-19T06:13:28.194Z,100489.77
2019-05-19T06:15:59.426Z,100497.38
2019-05-19T06:18:30.888Z,100500.91
2019-05-19T06:21:02.187Z,100499.27
2019-05-19T06:23:33.556Z,100500.33
2019-05-19T06:26:05.074Z,100500.98
2019-05-19T06:28:36.443Z,100494.90
2019-05-19T06:31:08.034Z,100484.55
2019-05-19T06:33:39.531Z,100505.34
2019-05-19T06:36:10.915Z,100470.47
2019-05-19T06:38:42.243Z,100503.05
2019-05-19T06:41:13.596Z,100490.35
2019-05-19T06:43:45.123Z,100474.50
2019-05-19T06:46:16.460Z,100476.35
2019-05-19T06:48:47.824Z,100493.81
2019-05-19T06:51:19.192Z,100491.05
2019-05-19T06:53:50.741Z,100484.19
2019-05-19T06:56:22.054Z,100476.56
2019-05-19T06:58:53.318Z,100474.70
2019-05-19T07:01:24.589Z,100470.19
2019-05-19T07:03:56.040Z,100485.77
2019-05-19T07:06:27.376Z,100490.01
2019-05-19T07:08:58.777Z,100492.53
2019-05-19T07:11:30.319Z,100482.03
2019-05-19T07:14:03.039Z,100474.44
2019-05-19T07:16:34.586Z,100475.08
2019-05-19T07:19:06.089Z,100505.26
2019-05-19T07:21:37.620Z,100475.88
2019-05-19T07:24:08.756Z,100483.73
2019-05-19T07:26:40.133Z,100484.77
2019-05-19T07:29:11.475Z,100501.63
2019-05-19T07:31:43.186Z,100496.49
2019-05-19T07:34:15.514Z,100479.42
2019-05-19T07:36:47.129Z,100482.96
2019-05-19T07:39:18.679Z,100486.52
2019-05-19T07:41:50.473Z,100478.87
2019-05-19T07:44:24.899Z,100488.51
2019-05-19T07:46:56.328Z,100479.48
2019-05-19T07:49:27.622Z,100483.70
2019-05-19T07:51:58.939Z,100486.46
2019-05-19T07:54:30.404Z,100489.48
2019-05-19T07:57:01.713Z,100494.09
2019-05-19T07:59:32.989Z,100492.42
2019-05-19T08:02:04.779Z,100506.94
2019-05-19T08:04:36.299Z,100501.71
2019-05-19T08:07:07.839Z,100495.28
2019-05-19T08:09:39.130Z,100517.25
2019-05-19T08:12:10.474Z,100497.44
2019-05-19T08:14:41.976Z,100492.51
2019-05-19T08:17:13.414Z,100499.28
2019-05-19T08:19:44.601Z,100497.27
2019-05-19T08:22:15.957Z,100498.53
2019-05-19T08:24:47.372Z,100497.66
2019-05-19T08:27:18.736Z,100487.97
2019-05-19T08:29:50.108Z,100508.33
2019-05-19T08:32:21.420Z,100518.16
2019-05-19T08:34:52.752Z,100502.87
2019-05-19T08:37:24.025Z,100489.06
2019-05-19T08:39:55.183Z,100488.88
2019-05-19T08:42:26.346Z,100488.93
2019-05-19T08:44:57.502Z,100511.87
2019-05-19T08:47:28.731Z,100498.59
2019-05-19T08:49:59.844Z,100515.77
2019-05-19T08:52:31.045Z,100499.41
2019-05-19T08:55:02.511Z,100503.88
2019-05-19T08:57:33.617Z,100508.00
2019-05-19T09:00:06.595Z,100498.55
2019-05-19T09:02:38.857Z,100510.61
2019-05-19T09:05:10.401Z,100484.50
2019-05-19T09:07:41.624Z,100514.28
2019-05-19T09:10:14.364Z,100492.96
2019-05-19T09:12:45.672Z,100481.83
2019-05-19T09:15:17.015Z,100491.27
2019-05-19T09:17:48.178Z,100486.89
2019-05-19T09:20:19.558Z,100491.16
2019-05-19T09:22:50.755Z,100476.29
2019-05-19T09:25:22.090Z,100469.89
2019-05-19T09:27:53.636Z,100490.63
2019-05-19T09:30:24.900Z,100471.18
2019-05-19T09:32:56.174Z,100473.59
2019-05-19T09:35:27.392Z,100482.20
2019-05-19T09:37:58.834Z,100479.08
2019-05-19T09:40:30.091Z,100474.02
2019-05-19T09:43:01.360Z,100485.88
2019-05-19T09:45:32.787Z,100469.70
2019-05-19T09:48:04.422Z,100452.33
2019-05-19T09:50:35.604Z,100461.56
2019-05-19T09:53:06.822Z,100459.20
2019-05-19T09:55:38.007Z,100483.02
2019-05-19T09:58:09.314Z,100472.41
2019-05-19T10:00:40.529Z,100465.50
2019-05-19T10:03:12.008Z,100458.97
2019-05-19T10:05:43.367Z,100453.92
2019-05-19T10:08:14.656Z,100480.38
2019-05-19T10:11:05.513Z,100455.03
2019-05-19T10:13:37.857Z,100459.84
2019-05-19T10:16:09.416Z,100457.03
2019-05-19T10:18:40.809Z,100466.47
2019-05-19T10:21:12.101Z,100463.70
2019-05-19T10:23:43.403Z,100465.58
2019-05-19T10:26:14.706Z,100470.63
2019-05-19T10:28:45.821Z,100466.97
2019-05-19T10:31:17.043Z,100446.08
2019-05-19T10:33:48.259Z,100464.89
2019-05-19T10:36:19.628Z,100476.61
2019-05-19T10:38:50.919Z,100470.30
2019-05-19T10:41:22.109Z,100456.65
2019-05-19T10:44:00.917Z,100440.22
2019-05-19T10:46:32.312Z,100447.01
2019-05-19T10:49:03.524Z,100464.31
2019-05-19T10:51:34.920Z,100442.73
2019-05-19T10:54:06.223Z,100432.66
2019-05-19T10:56:37.579Z,100459.68
2019-05-19T10:59:08.835Z,100448.73
2019-05-19T11:01:40.059Z,100434.02
2019-05-19T11:04:11.426Z,100441.19
2019-05-19T11:06:42.782Z,100446.74
2019-05-19T11:09:14.334Z,100429.45
2019-05-19T11:11:45.521Z,100434.77
2019-05-19T11:14:16.740Z,100434.73
2019-05-19T11:16:47.978Z,100434.02
2019-05-19T11:19:19.364Z,100445.82
2019-05-19T11:21:50.796Z,100435.33
2019-05-19T11:24:22.340Z,100431.98
2019-05-19T11:26:53.580Z,100434.44
2019-05-19T11:29:24.782Z,100435.78
2019-05-19T11:31:56.091Z,100465.51
2019-05-19T11:34:27.431Z,100436.72
2019-05-19T11:36:58.867Z,100453.41
2019-05-19T11:39:30.061Z,100431.92
2019-05-19T11:42:02.243Z,100448.11
2019-05-19T11:44:33.629Z,100434.56
2019-05-19T11:47:04.984Z,100450.17
2019-05-19T11:49:36.216Z,100451.64
2019-05-19T11:52:07.390Z,100432.23
2019-05-19T11:54:38.646Z,100437.05
2019-05-19T11:57:09.923Z,100452.31
2019-05-19T11:59:41.199Z,100445.02
2019-05-19T12:02:12.468Z,100438.81
2019-05-19T12:04:43.621Z,100427.44
2019-05-19T12:07:15.053Z,100442.67
2019-05-19T12:09:46.195Z,100439.89
2019-05-19T12:12:17.526Z,100447.81
2019-05-19T12:14:48.677Z,100434.00
2019-05-19T12:17:19.897Z,100446.17
2019-05-19T12:19:51.145Z,100451.03
2019-05-19T12:22:22.317Z,100440.09
2019-05-19T12:24:53.780Z,100441.16
2019-05-19T12:27:25.166Z,100432.92
2019-05-19T12:29:56.460Z,100455.34
2019-05-19T12:32:27.669Z,100443.09
2019-05-19T12:34:58.905Z,100451.57
2019-05-19T12:37:30.845Z,100445.24
2019-05-19T12:40:02.466Z,100449.11
2019-05-19T12:42:35.688Z,100438.55
2019-05-19T12:45:09.002Z,100434.30
2019-05-19T12:47:40.407Z,100425.03
2019-05-19T12:50:11.741Z,100426.86
2019-05-19T12:52:43.025Z,100444.22
2019-05-19T12:55:15.813Z,100471.51
2019-05-19T12:57:47.207Z,100436.09
2019-05-19T13:00:18.535Z,100440.00
2019-05-19T13:02:50.029Z,100438.62
2019-05-19T13:05:21.314Z,100436.33
2019-05-19T13:07:52.529Z,100435.96
2019-05-19T13:10:24.071Z,100445.24
2019-05-19T13:12:55.438Z,100462.78
2019-05-19T13:15:30.493Z,100445.23
2019-05-19T13:18:02.301Z,100443.27
2019-05-19T13:20:33.518Z,100443.23
2019-05-19T13:23:04.718Z,100443.23
2019-05-19T13:25:36.007Z,100446.31
2019-05-19T13:28:07.425Z,100444.67
2019-05-19T13:30:38.613Z,100452.86
2019-05-19T13:33:09.876Z,100449.58
2019-05-19T13:35:41.074Z,100449.58
2019-05-19T13:38:12.399Z,100446.06
2019-05-19T13:40:43.496Z,100444.48
2019-05-19T13:43:14.755Z,100464.11
2019-05-19T13:45:46.951Z,100449.88
2019-05-19T13:48:18.251Z,100455.11
2019-05-19T13:50:49.420Z,100447.78
2019-05-19T13:53:20.767Z,100450.43
2019-05-19T13:55:52.247Z,100447.91
2019-05-19T13:58:23.540Z,100449.14
2019-05-19T14:00:54.781Z,100449.31
2019-05-19T14:03:26.150Z,100435.02
2019-05-19T14:05:57.212Z,100443.18
2019-05-19T14:08:28.553Z,100448.23
2019-05-19T14:11:01.472Z,100465.23
2019-05-19T14:13:32.760Z,100452.92
2019-05-19T14:16:04.080Z,100456.57
2019-05-19T14:18:35.307Z,100463.73
2019-05-19T14:21:06.682Z,100464.64
2019-05-19T14:23:41.005Z,100457.45
2019-05-19T14:26:12.366Z,100450.05
2019-05-19T14:28:43.653Z,100460.77
2019-05-19T14:31:14.792Z,100471.25
2019-05-19T14:33:47.723Z,100454.91
2019-05-19T14:36:20.096Z,100453.48
2019-05-19T14:39:05.021Z,100462.86
2019-05-19T14:41:35.496Z,100458.30
2019-05-19T14:44:07.816Z,100451.73
2019-05-19T14:46:39.313Z,100466.12
2019-05-19T14:49:11.361Z,100457.78
2019-05-19T14:51:42.639Z,100457.95
2019-05-19T14:54:14.102Z,100457.15
2019-05-19T14:56:45.346Z,100453.42
2019-05-19T14:59:16.588Z,100466.09
2019-05-19T15:01:47.747Z,100467.52
2019-05-19T15:04:19.090Z,100465.79
2019-05-19T15:06:50.435Z,100466.59
2019-05-19T15:09:21.713Z,100458.76
2019-05-19T15:11:53.401Z,100457.37
2019-05-19T15:14:24.783Z,100454.17
2019-05-19T15:16:56.061Z,100460.74
2019-05-19T15:19:28.338Z,100480.54
2019-05-19T15:21:59.734Z,100472.81
2019-05-19T15:24:30.968Z,100480.23
2019-05-19T15:27:02.312Z,100466.66
2019-05-19T15:29:33.590Z,100462.78
2019-05-19T15:32:04.928Z,100461.87
2019-05-19T15:34:36.330Z,100456.04
2019-05-19T15:37:07.718Z,100482.39
2019-05-19T15:39:38.986Z,100463.47
2019-05-19T15:42:14.266Z,100474.43
2019-05-19T15:44:45.529Z,100468.31
2019-05-19T15:47:16.809Z,100484.00
2019-05-19T15:49:48.086Z,100469.73
2019-05-19T15:52:19.639Z,100476.92
2019-05-19T15:54:51.135Z,100483.04
2019-05-19T15:57:22.534Z,100481.91
2019-05-19T15:59:54.165Z,100477.91
2019-05-19T16:02:25.512Z,100488.73
2019-05-19T16:04:56.712Z,100480.09
2019-05-19T16:07:27.995Z,100487.91
2019-05-19T16:09:59.383Z,100482.58
2019-05-19T16:12:30.689Z,100483.33
2019-05-19T16:15:01.948Z,100480.72
2019-05-19T16:17:33.314Z,100489.16
2019-05-19T16:20:06.718Z,100480.42
2019-05-19T16:22:38.174Z,100488.19
2019-05-19T16:25:10.947Z,100484.74
2019-05-19T16:27:42.464Z,100487.11
2019-05-19T16:30:14.325Z,100486.02
2019-05-19T16:32:45.593Z,100491.47
2019-05-19T16:35:16.803Z,100496.12
2019-05-19T16:37:48.202Z,100499.95
2019-05-19T16:40:19.762Z,100502.88
2019-05-19T16:42:51.104Z,100503.66
2019-05-19T16:45:22.559Z,100505.31
2019-05-19T16:47:54.119Z,100508.84
2019-05-19T16:50:25.577Z,100510.07
2019-05-19T16:52:57.292Z,100520.16
2019-05-19T16:55:30.818Z,100510.92
2019-05-19T16:58:02.268Z,100513.62
2019-05-19T17:00:33.876Z,100521.04
2019-05-19T17:03:05.684Z,100515.97
2019-05-19T17:05:37.120Z,100523.65
2019-05-19T17:08:08.449Z,100519.88
2019-05-19T17:10:39.945Z,100523.04
2019-05-19T17:13:11.120Z,100524.78
2019-05-19T17:15:42.319Z,100523.52
2019-05-19T17:18:13.755Z,100529.58
2019-05-19T17:20:45.418Z,100527.54
2019-05-19T17:23:17.353Z,100531.56
2019-05-19T17:25:49.555Z,100532.94
2019-05-19T17:28:21.227Z,100540.05
2019-05-19T17:30:52.798Z,100536.17
2019-05-19T17:33:24.478Z,100534.78
2019-05-19T17:36:02.835Z,100544.63
2019-05-19T17:38:34.328Z,100549.78
2019-05-19T17:41:05.871Z,100553.89
2019-05-19T17:43:37.296Z,100556.30
2019-05-19T17:46:08.902Z,100557.69
2019-05-19T17:48:40.647Z,100555.73
2019-05-19T17:51:12.356Z,100558.52
2019-05-19T17:53:43.844Z,100562.06
2019-05-19T17:56:16.800Z,100556.50
2019-05-19T17:58:48.724Z,100555.34
2019-05-19T18:01:19.932Z,100551.03
2019-05-19T18:03:51.829Z,100562.89
2019-05-19T18:06:23.356Z,100563.05
2019-05-19T18:08:55.091Z,100567.20
2019-05-19T18:11:28.331Z,100569.45
2019-05-19T18:14:01.084Z,100570.68
2019-05-19T18:16:32.708Z,100572.31
2019-05-19T18:19:04.312Z,100565.39
2019-05-19T18:21:35.760Z,100564.31
2019-05-19T18:24:07.848Z,100567.30
2019-05-19T18:26:39.328Z,100575.02
2019-05-19T18:29:10.984Z,100579.36
2019-05-19T18:31:42.582Z,100576.04
2019-05-19T18:34:13.734Z,100572.53
2019-05-19T18:36:46.391Z,100582.31
2019-05-19T18:39:17.769Z,100585.08
2019-05-19T18:41:48.960Z,100587.10
2019-05-19T18:44:20.417Z,100588.32
2019-05-19T18:46:51.788Z,100597.57
2019-05-19T18:49:23.131Z,100603.78
2019-05-19T18:51:58.454Z,100605.24
2019-05-19T18:54:57.015Z,100604.70
2019-05-19T18:57:28.612Z,100604.91
2019-05-19T19:00:00.186Z,100607.74
2019-05-19T19:02:32.111Z,100607.05
2019-05-19T19:05:04.325Z,100601.75
2019-05-19T19:07:52.495Z,100608.73
2019-05-19T19:10:23.953Z,100606.97
2019-05-19T19:12:55.460Z,100603.13
2019-05-19T19:15:26.772Z,100608.16
2019-05-19T19:17:58.053Z,100606.39
2019-05-19T19:20:29.422Z,100609.29
2019-05-19T19:23:01.459Z,100612.73
2019-05-19T19:25:33.061Z,100616.25
2019-05-19T19:28:04.443Z,100618.34
2019-05-19T19:30:35.897Z,100619.87
2019-05-19T19:33:07.346Z,100628.22
2019-05-19T19:35:39.788Z,100621.75
2019-05-19T19:38:11.317Z,100626.49
2019-05-19T19:40:42.882Z,100625.31
2019-05-19T19:43:14.382Z,100624.97
2019-05-19T19:45:45.753Z,100626.63
2019-05-19T19:48:17.286Z,100625.63
2019-05-19T19:50:48.610Z,100633.95
2019-05-19T19:53:20.011Z,100635.88
2019-05-19T19:55:51.473Z,100634.94
2019-05-19T19:58:22.911Z,100635.48
2019-05-19T20:00:55.006Z,100632.41
2019-05-19T20:03:26.423Z,100633.73
2019-05-19T20:05:57.910Z,100627.98
2019-05-19T20:08:29.410Z,100634.16
2019-05-19T20:11:00.961Z,100634.67
2019-05-19T20:13:32.627Z,100639.94
2019-05-19T20:16:04.117Z,100632.83
2019-05-19T20:18:35.710Z,100634.21
2019-05-19T20:21:07.194Z,100648.34
2019-05-19T20:23:38.648Z,100651.45
2019-05-19T20:26:10.247Z,100640.09
2019-05-19T20:28:41.617Z,100638.52
2019-05-19T20:31:13.292Z,100645.44
2019-05-19T20:33:44.762Z,100640.23
2019-05-19T20:36:16.106Z,100654.97
2019-05-19T20:38:47.521Z,100642.47
2019-05-19T20:41:18.987Z,100649.92
2019-05-19T20:43:50.377Z,100643.36
2019-05-19T20:46:21.725Z,100645.17
2019-05-19T20:48:53.078Z,100651.98
2019-05-19T20:51:24.633Z,100652.08
2019-05-19T20:53:56.106Z,100665.87
2019-05-19T20:56:27.592Z,100662.26
2019-05-19T20:58:58.936Z,100662.48
2019-05-19T21:01:30.387Z,100666.94
2019-05-19T21:04:01.689Z,100677.97
2019-05-19T21:06:33.090Z,100673.51
2019-05-19T21:09:05.897Z,100678.28
2019-05-19T21:11:37.321Z,100678.69
2019-05-19T21:14:09.865Z,100679.41
2019-05-19T21:16:41.195Z,100683.36
2019-05-19T21:19:14.032Z,100683.67
2019-05-19T21:21:45.268Z,100697.03
2019-05-19T21:24:16.545Z,100695.73
2019-05-19T21:26:47.923Z,100687.38
2019-05-19T21:29:19.530Z,100692.55
2019-05-19T21:31:50.823Z,100688.94
2019-05-19T21:34:22.113Z,100693.50
2019-05-19T21:36:53.617Z,100695.61
2019-05-19T21:39:24.845Z,100694.23
2019-05-19T21:41:56.216Z,100688.81
2019-05-19T21:47:35.773Z,100696.88
2019-05-19T21:50:08.409Z,100701.45
2019-05-19T21:52:39.989Z,100712.89
2019-05-19T21:55:11.432Z,100713.83
2019-05-19T21:57:45.279Z,100715.21
2019-05-19T22:00:19.007Z,100719.06
2019-05-19T22:02:52.346Z,100726.45
2019-05-19T22:05:24.230Z,100723.70
2019-05-19T22:08:04.723Z,100723.27
2019-05-19T22:10:36.585Z,100720.38
2019-05-19T22:13:09.454Z,100726.42
2019-05-19T22:15:41.494Z,100723.02
2019-05-19T22:18:13.762Z,100725.13
2019-05-19T22:20:45.806Z,100716.33
2019-05-19T22:23:17.612Z,100718.53
2019-05-19T22:25:49.523Z,100722.52
2019-05-19T22:28:21.852Z,100717.02
2019-05-19T22:30:53.314Z,100716.58
2019-05-19T22:33:24.971Z,100724.91
2019-05-19T22:35:57.247Z,100721.39
2019-05-19T22:38:29.302Z,100719.69
2019-05-19T22:41:00.637Z,100717.34
2019-05-19T22:43:32.035Z,100726.20
2019-05-19T22:46:03.851Z,100730.14
2019-05-19T22:48:35.102Z,100736.03
2019-05-19T22:51:07.346Z,100735.16
2019-05-19T22:53:40.152Z,100738.66
2019-05-19T22:56:12.549Z,100736.77
2019-05-19T22:58:44.479Z,100741.50
2019-05-19T23:01:16.452Z,100733.65
2019-05-19T23:03:48.851Z,100745.42
2019-05-19T23:06:20.724Z,100740.47
2019-05-19T23:09:18.151Z,100738.92
2019-05-19T23:11:50.264Z,100739.91
2019-05-19T23:14:21.501Z,100741.46
2019-05-19T23:16:52.841Z,100742.27
2019-05-19T23:19:24.632Z,100747.56
2019-05-19T23:21:55.927Z,100742.27
2019-05-19T23:24:27.087Z,100745.30
2019-05-19T23:26:58.769Z,100743.83
2019-05-19T23:29:30.654Z,100727.32
2019-05-19T23:32:07.122Z,100744.91
2019-05-19T23:34:34.792Z,100748.69
2019-05-19T23:37:06.077Z,100748.42
2019-05-19T23:39:37.295Z,100746.76
2019-05-19T23:42:08.596Z,100751.38
2019-05-19T23:44:40.093Z,100750.40
2019-05-19T23:47:11.376Z,100744.06
2019-05-19T23:49:42.941Z,100747.98
2019-05-19T23:52:14.875Z,100743.73
2019-05-19T23:54:46.654Z,100746.16
2019-05-19T23:57:19.980Z,100748.95
